createdAt,value
2017-12-23T00:00:32.703Z,0.00
2017-12-23T00:01:32.631Z,0.00
2017-12-23T00:02:32.550Z,0.00
2017-12-23T00:03:32.451Z,0.00
2017-12-23T00:04:32.379Z,0.00
2017-12-23T00:05:32.292Z,0.00
2017-12-23T00:06:32.240Z,0.00
2017-12-23T00:07:32.138Z,0.00
2017-12-23T00:08:32.029Z,0.00
2017-12-23T00:09:31.950Z,0.00
2017-12-23T00:10:31.856Z,0.00
2017-12-23T00:11:31.793Z,0.00
2017-12-23T00:12:31.690Z,0.00
2017-12-23T00:13:31.615Z,0.00
2017-12-23T00:14:31.519Z,0.00
2017-12-23T00:15:31.434Z,0.00
2017-12-23T00:16:31.323Z,0.00
2017-12-23T00:17:31.253Z,0.00
2017-12-23T00:18:31.154Z,0.00
2017-12-23T00:19:31.083Z,0.00
2017-12-23T00:20:30.999Z,0.00
2017-12-23T00:21:30.901Z,0.00
2017-12-23T00:22:30.818Z,0.00
2017-12-23T00:23:30.736Z,0.00
2017-12-23T00:24:30.663Z,0.00
2017-12-23T00:25:30.574Z,0.00
2017-12-23T00:26:30.477Z,0.00
2017-12-23T00:27:30.395Z,0.00
2017-12-23T00:28:30.310Z,0.00
2017-12-23T00:29:30.238Z,0.00
2017-12-23T00:30:30.162Z,0.00
2017-12-23T00:31:30.058Z,0.00
2017-12-23T00:32:29.983Z,0.00
2017-12-23T00:33:29.907Z,0.00
2017-12-23T00:34:29.804Z,0.00
2017-12-23T00:35:29.718Z,0.00
2017-12-23T00:36:29.632Z,0.00
2017-12-23T00:37:29.552Z,0.00
2017-12-23T00:38:29.467Z,0.00
2017-12-23T00:39:29.381Z,0.00
2017-12-23T00:40:29.297Z,0.00
2017-12-23T00:41:29.213Z,0.00
2017-12-23T00:42:29.127Z,0.00
2017-12-23T00:43:29.046Z,0.00
2017-12-23T00:44:28.960Z,0.00
2017-12-23T00:45:28.876Z,0.00
2017-12-23T00:46:28.793Z,0.00
2017-12-23T00:47:28.706Z,0.00
2017-12-23T00:48:28.627Z,0.00
2017-12-23T00:49:28.538Z,0.00
2017-12-23T00:50:28.454Z,0.00
2017-12-23T00:51:28.370Z,0.00
2017-12-23T00:52:28.286Z,0.00
2017-12-23T00:53:28.206Z,0.00
2017-12-23T00:54:28.124Z,0.00
2017-12-23T00:55:28.031Z,0.00
2017-12-23T00:56:27.945Z,0.00
2017-12-23T00:57:27.864Z,0.00
2017-12-23T00:58:27.779Z,0.00
2017-12-23T00:59:27.696Z,0.00
2017-12-23T01:00:27.614Z,0.00
2017-12-23T01:01:27.526Z,0.00
2017-12-23T01:02:27.444Z,0.00
2017-12-23T01:03:27.392Z,0.00
2017-12-23T01:04:27.302Z,0.00
2017-12-23T01:05:27.190Z,0.00
2017-12-23T01:06:27.151Z,0.00
2017-12-23T01:07:27.024Z,0.00
2017-12-23T01:08:26.938Z,0.00
2017-12-23T01:09:26.873Z,0.00
2017-12-23T01:10:26.779Z,0.00
2017-12-23T01:11:26.684Z,0.00
2017-12-23T01:12:26.612Z,0.00
2017-12-23T01:13:26.516Z,0.00
2017-12-23T01:14:26.431Z,0.00
2017-12-23T01:15:26.349Z,0.00
2017-12-23T01:16:26.268Z,0.00
2017-12-23T01:17:26.188Z,0.00
2017-12-23T01:18:26.131Z,0.00
2017-12-23T01:19:26.012Z,0.00
2017-12-23T01:20:25.928Z,0.00
2017-12-23T01:21:25.846Z,0.00
2017-12-23T01:22:25.762Z,0.00
2017-12-23T01:23:25.676Z,0.00
2017-12-23T01:24:25.590Z,0.00
2017-12-23T01:25:25.509Z,0.00
2017-12-23T01:26:25.447Z,0.00
2017-12-23T01:27:25.340Z,0.00
2017-12-23T01:28:25.271Z,0.00
2017-12-23T01:29:25.187Z,0.00
2017-12-23T01:30:25.133Z,0.00
2017-12-23T01:31:25.006Z,0.00
2017-12-23T01:32:24.920Z,0.00
2017-12-23T01:33:24.836Z,0.00
2017-12-23T01:34:24.799Z,0.00
2017-12-23T01:35:24.669Z,0.00
2017-12-23T01:36:24.622Z,0.00
2017-12-23T01:37:24.509Z,0.00
2017-12-23T01:38:24.416Z,0.00
2017-12-23T01:39:24.332Z,0.00
2017-12-23T01:40:24.247Z,0.00
2017-12-23T01:41:24.163Z,0.00
2017-12-23T01:42:24.081Z,0.00
2017-12-23T01:43:23.996Z,0.00
2017-12-23T01:44:23.913Z,0.00
2017-12-23T01:45:23.850Z,0.00
2017-12-23T01:46:23.743Z,0.00
2017-12-23T01:47:23.661Z,0.00
2017-12-23T01:48:23.575Z,0.00
2017-12-23T01:49:23.502Z,0.00
2017-12-23T01:50:23.408Z,0.00
2017-12-23T01:51:23.339Z,0.00
2017-12-23T01:52:23.243Z,0.00
2017-12-23T01:53:23.167Z,0.00
2017-12-23T01:54:23.612Z,0.00
2017-12-23T01:55:22.996Z,0.00
2017-12-23T01:56:22.948Z,0.00
2017-12-23T01:57:22.844Z,0.00
2017-12-23T01:58:22.753Z,0.00
2017-12-23T01:59:22.656Z,0.00
2017-12-23T02:00:22.578Z,0.00
2017-12-23T02:01:22.488Z,0.00
2017-12-23T02:02:22.417Z,0.00
2017-12-23T02:03:22.322Z,0.00
2017-12-23T02:04:22.239Z,0.00
2017-12-23T02:05:22.152Z,0.00
2017-12-23T02:06:22.069Z,0.00
2017-12-23T02:07:22.025Z,0.00
2017-12-23T02:08:21.898Z,0.00
2017-12-23T02:09:21.817Z,0.00
2017-12-23T02:10:21.736Z,0.00
2017-12-23T02:11:21.657Z,0.00
2017-12-23T02:12:21.565Z,0.00
2017-12-23T02:13:21.479Z,0.00
2017-12-23T02:14:21.395Z,0.00
2017-12-23T02:15:21.314Z,0.00
2017-12-23T02:16:21.229Z,0.00
2017-12-23T02:17:21.150Z,0.00
2017-12-23T02:18:21.060Z,0.00
2017-12-23T02:19:20.982Z,0.00
2017-12-23T02:20:20.893Z,0.00
2017-12-23T02:21:20.809Z,0.00
2017-12-23T02:22:20.725Z,0.00
2017-12-23T02:23:20.643Z,0.00
2017-12-23T02:24:20.558Z,0.00
2017-12-23T02:25:20.472Z,0.00
2017-12-23T02:26:20.403Z,0.00
2017-12-23T02:27:20.306Z,0.00
2017-12-23T02:28:20.225Z,0.00
2017-12-23T02:29:20.150Z,0.00
2017-12-23T02:30:20.054Z,0.00
2017-12-23T02:31:19.970Z,0.00
2017-12-23T02:32:19.894Z,0.00
2017-12-23T02:33:19.803Z,0.00
2017-12-23T02:34:19.724Z,0.00
2017-12-23T02:35:19.635Z,0.00
2017-12-23T02:36:19.550Z,0.00
2017-12-23T02:37:19.482Z,0.00
2017-12-23T02:38:19.383Z,0.00
2017-12-23T02:39:19.299Z,0.00
2017-12-23T02:40:19.215Z,0.00
2017-12-23T02:41:19.136Z,0.00
2017-12-23T02:42:19.060Z,0.00
2017-12-23T02:43:18.978Z,0.00
2017-12-23T02:44:18.880Z,0.00
2017-12-23T02:45:18.799Z,0.00
2017-12-23T02:46:18.712Z,0.00
2017-12-23T02:47:18.644Z,0.00
2017-12-23T02:48:18.545Z,0.00
2017-12-23T02:49:18.479Z,0.00
2017-12-23T02:50:18.376Z,0.00
2017-12-23T02:51:18.294Z,0.00
2017-12-23T02:52:18.217Z,0.00
2017-12-23T02:53:18.124Z,0.00
2017-12-23T02:54:18.046Z,0.00
2017-12-23T02:55:17.964Z,0.00
2017-12-23T02:56:17.873Z,0.00
2017-12-23T02:57:17.789Z,0.00
2017-12-23T02:58:17.708Z,0.00
2017-12-23T02:59:17.621Z,0.00
2017-12-23T03:00:17.538Z,0.00
2017-12-23T03:01:17.454Z,0.00
2017-12-23T03:02:17.370Z,0.00
2017-12-23T03:03:17.288Z,0.00
2017-12-23T03:04:17.203Z,0.00
2017-12-23T03:05:17.141Z,0.00
2017-12-23T03:06:17.037Z,0.00
2017-12-23T03:07:16.952Z,0.00
2017-12-23T03:08:16.867Z,0.00
2017-12-23T03:09:16.789Z,0.00
2017-12-23T03:10:16.700Z,0.00
2017-12-23T03:11:16.619Z,0.00
2017-12-23T03:12:16.535Z,0.00
2017-12-23T03:13:16.452Z,0.00
2017-12-23T03:14:16.366Z,0.00
2017-12-23T03:15:16.282Z,0.00
2017-12-23T03:16:16.199Z,0.00
2017-12-23T03:17:16.114Z,0.00
2017-12-23T03:18:16.034Z,0.00
2017-12-23T03:19:15.948Z,0.00
2017-12-23T03:20:15.864Z,0.00
2017-12-23T03:21:15.783Z,0.00
2017-12-23T03:22:15.695Z,0.00
2017-12-23T03:23:15.627Z,0.00
2017-12-23T03:24:15.528Z,0.00
2017-12-23T03:25:15.445Z,0.00
2017-12-23T03:26:15.360Z,0.00
2017-12-23T03:27:15.275Z,0.00
2017-12-23T03:28:15.193Z,0.00
2017-12-23T03:29:15.109Z,0.00
2017-12-23T03:30:15.026Z,0.00
2017-12-23T03:31:14.943Z,0.00
2017-12-23T03:32:14.859Z,0.00
2017-12-23T03:33:14.777Z,0.00
2017-12-23T03:34:14.694Z,0.00
2017-12-23T03:35:14.612Z,0.00
2017-12-23T03:36:14.534Z,0.00
2017-12-23T03:37:14.441Z,0.00
2017-12-23T03:38:14.355Z,0.00
2017-12-23T03:39:14.272Z,0.00
2017-12-23T03:40:14.189Z,0.00
2017-12-23T03:41:14.106Z,0.00
2017-12-23T03:42:14.023Z,0.00
2017-12-23T03:43:13.939Z,0.00
2017-12-23T03:44:13.855Z,0.00
2017-12-23T03:45:13.773Z,0.00
2017-12-23T03:46:13.688Z,0.00
2017-12-23T03:47:13.606Z,0.00
2017-12-23T03:48:13.521Z,0.00
2017-12-23T03:49:13.437Z,0.00
2017-12-23T03:50:13.356Z,0.00
2017-12-23T03:51:13.270Z,0.00
2017-12-23T03:52:13.186Z,0.00
2017-12-23T03:53:13.105Z,0.00
2017-12-23T03:54:13.019Z,0.00
2017-12-23T03:55:12.937Z,0.00
2017-12-23T03:56:12.853Z,0.00
2017-12-23T03:57:12.769Z,0.00
2017-12-23T03:58:12.685Z,0.00
2017-12-23T03:59:12.603Z,0.00
2017-12-23T04:00:12.521Z,0.00
2017-12-23T04:01:12.436Z,0.00
2017-12-23T04:02:12.351Z,0.00
2017-12-23T04:03:12.269Z,0.00
2017-12-23T04:04:12.184Z,0.00
2017-12-23T04:05:12.104Z,0.00
2017-12-23T04:06:12.019Z,0.00
2017-12-23T04:07:11.936Z,0.00
2017-12-23T04:08:11.852Z,0.00
2017-12-23T04:09:11.770Z,0.00
2017-12-23T04:10:11.685Z,0.00
2017-12-23T04:11:11.605Z,0.00
2017-12-23T04:12:11.520Z,0.00
2017-12-23T04:13:11.436Z,0.00
2017-12-23T04:14:11.353Z,0.00
2017-12-23T04:15:11.271Z,0.00
2017-12-23T04:16:11.190Z,0.00
2017-12-23T04:17:11.105Z,0.00
2017-12-23T04:18:11.021Z,0.00
2017-12-23T04:19:11.034Z,0.00
2017-12-23T04:20:10.858Z,0.00
2017-12-23T04:21:10.773Z,0.00
2017-12-23T04:22:10.688Z,0.00
2017-12-23T04:23:10.605Z,0.00
2017-12-23T04:24:10.522Z,0.00
2017-12-23T04:25:10.439Z,0.00
2017-12-23T04:26:10.361Z,0.00
2017-12-23T04:27:10.275Z,0.00
2017-12-23T04:28:10.190Z,0.00
2017-12-23T04:29:10.108Z,0.00
2017-12-23T04:30:10.025Z,0.00
2017-12-23T04:31:09.939Z,0.00
2017-12-23T04:32:09.860Z,0.00
2017-12-23T04:33:09.774Z,0.00
2017-12-23T04:34:09.694Z,0.00
2017-12-23T04:35:09.608Z,0.00
2017-12-23T04:36:09.525Z,0.00
2017-12-23T04:37:09.444Z,0.00
2017-12-23T04:38:09.360Z,0.00
2017-12-23T04:39:09.276Z,0.00
2017-12-23T04:40:09.194Z,0.00
2017-12-23T04:41:09.112Z,0.00
2017-12-23T04:42:09.030Z,0.00
2017-12-23T04:43:08.945Z,0.00
2017-12-23T04:44:08.862Z,0.00
2017-12-23T04:45:08.781Z,0.00
2017-12-23T04:46:08.696Z,0.00
2017-12-23T04:47:08.613Z,0.00
2017-12-23T04:48:08.533Z,0.00
2017-12-23T04:49:08.449Z,0.00
2017-12-23T04:50:08.365Z,0.00
2017-12-23T04:51:08.282Z,0.00
2017-12-23T04:52:08.204Z,0.00
2017-12-23T04:53:08.118Z,0.00
2017-12-23T04:54:08.035Z,0.00
2017-12-23T04:55:07.951Z,0.00
2017-12-23T04:56:07.870Z,0.00
2017-12-23T04:57:07.786Z,0.00
2017-12-23T04:58:07.705Z,0.00
2017-12-23T04:59:07.621Z,0.00
2017-12-23T05:00:07.564Z,0.00
2017-12-23T05:01:07.457Z,0.00
2017-12-23T05:02:07.372Z,0.00
2017-12-23T05:03:07.289Z,0.00
2017-12-23T05:04:07.207Z,0.00
2017-12-23T05:05:07.124Z,0.00
2017-12-23T05:06:07.041Z,0.00
2017-12-23T05:07:06.961Z,0.00
2017-12-23T05:08:06.880Z,0.00
2017-12-23T05:09:06.793Z,0.00
2017-12-23T05:10:06.712Z,0.00
2017-12-23T05:11:06.628Z,0.00
2017-12-23T05:12:06.548Z,0.00
2017-12-23T05:13:06.463Z,0.00
2017-12-23T05:14:06.380Z,0.00
2017-12-23T05:15:06.299Z,0.00
2017-12-23T05:16:06.218Z,0.00
2017-12-23T05:17:06.145Z,0.00
2017-12-23T05:18:06.049Z,0.00
2017-12-23T05:19:05.968Z,0.00
2017-12-23T05:20:05.888Z,0.00
2017-12-23T05:21:05.803Z,0.00
2017-12-23T05:22:05.722Z,0.00
2017-12-23T05:23:05.638Z,0.00
2017-12-23T05:24:05.562Z,0.00
2017-12-23T05:25:05.474Z,0.00
2017-12-23T05:26:05.389Z,0.00
2017-12-23T05:27:05.310Z,0.00
2017-12-23T05:28:05.226Z,0.00
2017-12-23T05:29:05.148Z,0.00
2017-12-23T05:30:05.058Z,0.00
2017-12-23T05:31:04.982Z,0.00
2017-12-23T05:32:04.896Z,0.00
2017-12-23T05:33:04.813Z,0.00
2017-12-23T05:34:04.773Z,0.00
2017-12-23T05:35:04.646Z,0.00
2017-12-23T05:36:04.564Z,0.00
2017-12-23T05:37:04.481Z,0.00
2017-12-23T05:38:04.399Z,0.00
2017-12-23T05:39:04.317Z,0.00
2017-12-23T05:40:04.235Z,0.00
2017-12-23T05:41:04.152Z,0.00
2017-12-23T05:42:04.070Z,0.00
2017-12-23T05:43:03.985Z,0.00
2017-12-23T05:44:03.904Z,0.00
2017-12-23T05:45:03.822Z,0.00
2017-12-23T05:46:03.737Z,0.00
2017-12-23T05:47:03.657Z,0.00
2017-12-23T05:48:03.575Z,0.00
2017-12-23T05:49:03.492Z,0.00
2017-12-23T05:50:03.408Z,0.00
2017-12-23T05:51:03.326Z,0.00
2017-12-23T05:52:03.244Z,0.00
2017-12-23T05:53:03.161Z,0.00
2017-12-23T05:54:03.078Z,0.00
2017-12-23T05:55:02.997Z,0.00
2017-12-23T05:56:02.914Z,0.00
2017-12-23T05:57:02.830Z,0.00
2017-12-23T05:58:02.745Z,0.00
2017-12-23T05:59:02.665Z,0.00
2017-12-23T06:00:02.583Z,0.00
2017-12-23T06:01:02.501Z,0.00
2017-12-23T06:02:02.417Z,0.00
2017-12-23T06:03:02.334Z,0.00
2017-12-23T06:04:02.252Z,0.00
2017-12-23T06:05:02.171Z,0.00
2017-12-23T06:06:02.086Z,0.00
2017-12-23T06:07:02.009Z,0.00
2017-12-23T06:08:01.920Z,0.00
2017-12-23T06:09:01.838Z,0.00
2017-12-23T06:10:01.756Z,0.00
2017-12-23T06:11:01.673Z,0.00
2017-12-23T06:12:01.589Z,0.00
2017-12-23T06:13:01.506Z,0.00
2017-12-23T06:14:01.422Z,0.00
2017-12-23T06:15:01.342Z,0.00
2017-12-23T06:16:01.259Z,0.00
2017-12-23T06:17:01.176Z,0.00
2017-12-23T06:18:01.093Z,0.00
2017-12-23T06:19:01.010Z,0.00
2017-12-23T06:20:00.929Z,0.00
2017-12-23T06:21:00.844Z,0.00
2017-12-23T06:22:00.762Z,0.00
2017-12-23T06:23:00.680Z,0.00
2017-12-23T06:24:00.602Z,0.00
2017-12-23T06:25:00.513Z,0.00
2017-12-23T06:26:00.430Z,0.00
2017-12-23T06:27:00.358Z,0.00
2017-12-23T06:28:00.265Z,0.00
2017-12-23T06:29:00.183Z,0.00
2017-12-23T06:30:00.099Z,0.00
2017-12-23T06:31:00.017Z,0.00
2017-12-23T06:31:59.933Z,0.00
2017-12-23T06:32:59.850Z,0.00
2017-12-23T06:33:59.767Z,0.00
2017-12-23T06:34:59.686Z,0.00
2017-12-23T06:35:59.608Z,0.00
2017-12-23T06:36:59.522Z,0.00
2017-12-23T06:37:59.437Z,0.00
2017-12-23T06:38:59.354Z,0.00
2017-12-23T06:39:59.272Z,0.00
2017-12-23T06:40:59.189Z,0.00
2017-12-23T06:41:59.106Z,0.00
2017-12-23T06:42:59.023Z,0.00
2017-12-23T06:43:58.942Z,0.00
2017-12-23T06:44:58.871Z,0.00
2017-12-23T06:45:58.776Z,0.00
2017-12-23T06:46:58.693Z,0.00
2017-12-23T06:47:58.611Z,0.00
2017-12-23T06:48:58.527Z,0.00
2017-12-23T06:49:58.444Z,0.00
2017-12-23T06:50:58.369Z,0.00
2017-12-23T06:51:58.281Z,0.00
2017-12-23T06:52:58.200Z,0.00
2017-12-23T06:53:58.114Z,0.00
2017-12-23T06:54:58.032Z,0.00
2017-12-23T06:55:57.946Z,0.00
2017-12-23T06:56:57.865Z,0.00
2017-12-23T06:57:57.780Z,0.00
2017-12-23T06:58:57.701Z,0.00
2017-12-23T06:59:57.619Z,0.00
2017-12-23T07:00:57.533Z,0.00
2017-12-23T07:01:57.451Z,0.00
2017-12-23T07:02:57.369Z,0.00
2017-12-23T07:03:57.287Z,0.00
2017-12-23T07:04:57.205Z,0.00
2017-12-23T07:05:57.124Z,0.00
2017-12-23T07:06:57.038Z,0.00
2017-12-23T07:07:56.956Z,0.00
2017-12-23T07:08:56.874Z,0.00
2017-12-23T07:09:56.793Z,0.00
2017-12-23T07:10:56.709Z,0.00
2017-12-23T07:11:56.655Z,0.00
2017-12-23T07:12:56.545Z,0.00
2017-12-23T07:13:56.462Z,0.00
2017-12-23T07:14:56.378Z,0.00
2017-12-23T07:15:56.296Z,0.00
2017-12-23T07:16:56.215Z,0.00
2017-12-23T07:17:56.134Z,0.00
2017-12-23T07:18:56.048Z,0.00
2017-12-23T07:19:55.966Z,0.00
2017-12-23T07:20:55.884Z,0.00
2017-12-23T07:21:55.801Z,5.63
2017-12-23T07:22:55.719Z,5.63
2017-12-23T07:23:55.655Z,5.63
2017-12-23T07:24:55.558Z,5.63
2017-12-23T07:25:55.471Z,5.63
2017-12-23T07:26:55.388Z,5.63
2017-12-23T07:27:55.308Z,5.63
2017-12-23T07:28:55.229Z,5.63
2017-12-23T07:29:55.144Z,5.63
2017-12-23T07:30:55.060Z,5.63
2017-12-23T07:31:54.977Z,11.25
2017-12-23T07:32:54.894Z,11.25
2017-12-23T07:33:54.811Z,11.25
2017-12-23T07:34:54.730Z,11.25
2017-12-23T07:35:54.659Z,11.25
2017-12-23T07:36:54.566Z,11.25
2017-12-23T07:37:54.486Z,11.25
2017-12-23T07:38:54.402Z,11.25
2017-12-23T07:39:54.318Z,11.25
2017-12-23T07:40:54.239Z,11.25
2017-12-23T07:41:54.175Z,11.25
2017-12-23T07:42:54.072Z,11.25
2017-12-23T07:43:53.989Z,11.25
2017-12-23T07:44:53.907Z,11.25
2017-12-23T07:45:53.825Z,16.88
2017-12-23T07:46:53.743Z,16.88
2017-12-23T07:47:53.670Z,16.88
2017-12-23T07:48:53.578Z,16.88
2017-12-23T07:49:53.496Z,16.88
2017-12-23T07:50:53.413Z,16.88
2017-12-23T07:51:53.332Z,11.25
2017-12-23T07:52:53.251Z,16.88
2017-12-23T07:53:53.169Z,11.25
2017-12-23T07:54:53.110Z,5.63
2017-12-23T07:55:53.003Z,5.63
2017-12-23T07:56:52.921Z,5.63
2017-12-23T07:57:52.841Z,5.63
2017-12-23T07:58:52.755Z,5.63
2017-12-23T07:59:52.675Z,5.63
2017-12-23T08:00:52.594Z,5.63
2017-12-23T08:01:52.511Z,5.63
2017-12-23T08:02:52.442Z,5.63
2017-12-23T08:03:52.346Z,5.63
2017-12-23T08:04:52.266Z,11.25
2017-12-23T08:05:52.183Z,11.25
2017-12-23T08:06:52.114Z,11.25
2017-12-23T08:07:52.020Z,11.25
2017-12-23T08:08:51.937Z,16.88
2017-12-23T08:09:51.853Z,16.88
2017-12-23T08:10:51.770Z,16.88
2017-12-23T08:11:51.690Z,16.88
2017-12-23T08:12:51.615Z,22.50
2017-12-23T08:13:51.525Z,22.50
2017-12-23T08:14:51.442Z,22.50
2017-12-23T08:15:51.361Z,16.88
2017-12-23T08:16:51.279Z,16.88
2017-12-23T08:17:51.197Z,16.88
2017-12-23T08:18:51.121Z,16.88
2017-12-23T08:19:51.081Z,16.88
2017-12-23T08:20:50.953Z,16.88
2017-12-23T08:21:50.868Z,11.25
2017-12-23T08:22:50.802Z,11.25
2017-12-23T08:23:50.704Z,11.25
2017-12-23T08:24:50.637Z,16.88
2017-12-23T08:25:50.545Z,16.88
2017-12-23T08:26:50.460Z,16.88
2017-12-23T08:27:50.379Z,16.88
2017-12-23T08:28:50.295Z,16.88
2017-12-23T08:29:50.212Z,16.88
2017-12-23T08:30:50.142Z,16.88
2017-12-23T08:31:50.049Z,16.88
2017-12-23T08:32:49.966Z,16.88
2017-12-23T08:33:49.883Z,16.88
2017-12-23T08:34:49.802Z,16.88
2017-12-23T08:35:49.720Z,16.88
2017-12-23T08:36:49.638Z,16.88
2017-12-23T08:37:49.555Z,16.88
2017-12-23T08:38:49.474Z,16.88
2017-12-23T08:39:49.392Z,11.25
2017-12-23T08:40:49.309Z,11.25
2017-12-23T08:41:49.233Z,11.25
2017-12-23T08:42:49.155Z,11.25
2017-12-23T08:43:49.066Z,5.63
2017-12-23T08:44:48.982Z,5.63
2017-12-23T08:45:48.935Z,5.63
2017-12-23T08:46:48.819Z,5.63
2017-12-23T08:47:48.736Z,5.63
2017-12-23T08:48:48.655Z,5.63
2017-12-23T08:49:48.572Z,5.63
2017-12-23T08:50:48.491Z,11.25
2017-12-23T08:51:48.410Z,11.25
2017-12-23T08:52:48.327Z,11.25
2017-12-23T08:53:48.245Z,16.88
2017-12-23T08:54:48.163Z,22.50
2017-12-23T08:55:48.098Z,22.50
2017-12-23T08:56:48.003Z,22.50
2017-12-23T08:57:47.917Z,28.13
2017-12-23T08:58:47.838Z,22.50
2017-12-23T08:59:47.758Z,22.50
2017-12-23T09:00:47.676Z,22.50
2017-12-23T09:01:47.589Z,22.50
2017-12-23T09:02:47.519Z,22.50
2017-12-23T09:03:47.426Z,22.50
2017-12-23T09:04:47.344Z,22.50
2017-12-23T09:05:47.263Z,22.50
2017-12-23T09:06:47.181Z,16.88
2017-12-23T09:07:47.099Z,16.88
2017-12-23T09:08:47.016Z,16.88
2017-12-23T09:09:46.934Z,16.88
2017-12-23T09:10:46.853Z,16.88
2017-12-23T09:11:46.771Z,16.88
2017-12-23T09:12:46.693Z,16.88
2017-12-23T09:13:46.667Z,22.50
2017-12-23T09:14:46.526Z,22.50
2017-12-23T09:15:46.444Z,28.13
2017-12-23T09:16:46.363Z,28.13
2017-12-23T09:17:46.283Z,28.13
2017-12-23T09:18:46.199Z,33.75
2017-12-23T09:19:46.119Z,28.13
2017-12-23T09:20:46.037Z,28.13
2017-12-23T09:21:45.952Z,28.13
2017-12-23T09:22:45.874Z,28.13
2017-12-23T09:23:45.794Z,28.13
2017-12-23T09:24:45.724Z,33.75
2017-12-23T09:25:45.630Z,28.13
2017-12-23T09:26:45.545Z,28.13
2017-12-23T09:27:45.463Z,28.13
2017-12-23T09:28:45.383Z,33.75
2017-12-23T09:29:45.299Z,39.38
2017-12-23T09:30:45.216Z,50.63
2017-12-23T09:31:45.141Z,50.63
2017-12-23T09:32:45.055Z,50.63
2017-12-23T09:33:44.973Z,50.63
2017-12-23T09:34:44.893Z,56.25
2017-12-23T09:35:44.811Z,56.25
2017-12-23T09:36:44.734Z,61.88
2017-12-23T09:37:44.645Z,61.88
2017-12-23T09:38:44.566Z,78.75
2017-12-23T09:39:44.482Z,84.38
2017-12-23T09:40:44.401Z,90.00
2017-12-23T09:41:44.319Z,95.63
2017-12-23T09:42:44.238Z,106.88
2017-12-23T09:43:44.156Z,112.50
2017-12-23T09:44:44.094Z,118.13
2017-12-23T09:45:43.993Z,123.75
2017-12-23T09:46:43.912Z,123.75
2017-12-23T09:47:43.832Z,123.75
2017-12-23T09:48:43.751Z,118.13
2017-12-23T09:49:43.668Z,129.38
2017-12-23T09:50:43.588Z,123.75
2017-12-23T09:51:43.504Z,123.75
2017-12-23T09:52:43.423Z,123.75
2017-12-23T09:53:43.342Z,106.88
2017-12-23T09:54:43.262Z,106.88
2017-12-23T09:55:43.179Z,95.63
2017-12-23T09:56:43.098Z,95.63
2017-12-23T09:57:43.017Z,95.63
2017-12-23T09:58:42.936Z,90.00
2017-12-23T09:59:42.854Z,78.75
2017-12-23T10:00:42.774Z,73.13
2017-12-23T10:01:42.694Z,67.50
2017-12-23T10:02:42.615Z,67.50
2017-12-23T10:03:42.531Z,61.88
2017-12-23T10:04:42.450Z,61.88
2017-12-23T10:05:42.367Z,61.88
2017-12-23T10:06:42.294Z,67.50
2017-12-23T10:07:42.204Z,67.50
2017-12-23T10:08:42.124Z,73.13
2017-12-23T10:09:42.043Z,78.75
2017-12-23T10:10:41.960Z,78.75
2017-12-23T10:11:41.885Z,78.75
2017-12-23T10:12:41.799Z,73.13
2017-12-23T10:13:41.716Z,73.13
2017-12-23T10:14:41.636Z,67.50
2017-12-23T10:15:41.554Z,67.50
2017-12-23T10:16:41.473Z,67.50
2017-12-23T10:17:41.392Z,67.50
2017-12-23T10:18:41.314Z,67.50
2017-12-23T10:19:41.243Z,61.88
2017-12-23T10:20:41.149Z,56.25
2017-12-23T10:21:41.066Z,56.25
2017-12-23T10:22:40.986Z,56.25
2017-12-23T10:23:40.911Z,56.25
2017-12-23T10:24:40.836Z,56.25
2017-12-23T10:25:40.741Z,56.25
2017-12-23T10:26:40.661Z,56.25
2017-12-23T10:27:40.580Z,56.25
2017-12-23T10:28:40.499Z,56.25
2017-12-23T10:29:40.417Z,56.25
2017-12-23T10:30:40.336Z,56.25
2017-12-23T10:31:40.256Z,61.88
2017-12-23T10:32:40.174Z,61.88
2017-12-23T10:33:40.093Z,61.88
2017-12-23T10:34:40.012Z,67.50
2017-12-23T10:35:39.929Z,67.50
2017-12-23T10:36:39.851Z,73.13
2017-12-23T10:37:39.767Z,73.13
2017-12-23T10:38:39.686Z,73.13
2017-12-23T10:39:39.605Z,73.13
2017-12-23T10:40:39.525Z,84.38
2017-12-23T10:41:39.441Z,78.75
2017-12-23T10:42:39.363Z,73.13
2017-12-23T10:43:39.279Z,73.13
2017-12-23T10:44:39.200Z,73.13
2017-12-23T10:45:39.119Z,78.75
2017-12-23T10:46:39.036Z,73.13
2017-12-23T10:47:38.955Z,67.50
2017-12-23T10:48:38.874Z,67.50
2017-12-23T10:49:38.792Z,73.13
2017-12-23T10:50:38.740Z,67.50
2017-12-23T10:51:38.631Z,67.50
2017-12-23T10:52:38.550Z,67.50
2017-12-23T10:53:38.467Z,61.88
2017-12-23T10:54:38.391Z,67.50
2017-12-23T10:55:38.315Z,61.88
2017-12-23T10:56:38.225Z,61.88
2017-12-23T10:57:38.144Z,50.63
2017-12-23T10:58:38.100Z,45.00
2017-12-23T10:59:37.984Z,45.00
2017-12-23T11:00:37.901Z,50.63
2017-12-23T11:01:37.819Z,56.25
2017-12-23T11:02:37.739Z,50.63
2017-12-23T11:03:37.657Z,45.00
2017-12-23T11:04:37.578Z,45.00
2017-12-23T11:05:37.494Z,45.00
2017-12-23T11:06:37.415Z,39.38
2017-12-23T11:07:37.332Z,45.00
2017-12-23T11:08:37.252Z,39.38
2017-12-23T11:09:37.172Z,39.38
2017-12-23T11:10:37.089Z,39.38
2017-12-23T11:11:37.009Z,45.00
2017-12-23T11:12:36.927Z,45.00
2017-12-23T11:13:36.846Z,45.00
2017-12-23T11:14:36.767Z,39.38
2017-12-23T11:15:36.685Z,39.38
2017-12-23T11:16:36.605Z,39.38
2017-12-23T11:17:36.522Z,45.00
2017-12-23T11:18:36.445Z,50.63
2017-12-23T11:19:36.361Z,45.00
2017-12-23T11:20:36.280Z,39.38
2017-12-23T11:21:36.202Z,39.38
2017-12-23T11:22:36.117Z,39.38
2017-12-23T11:23:36.036Z,39.38
2017-12-23T11:24:35.956Z,39.38
2017-12-23T11:25:35.873Z,33.75
2017-12-23T11:26:35.792Z,33.75
2017-12-23T11:27:35.712Z,39.38
2017-12-23T11:28:35.631Z,39.38
2017-12-23T11:29:35.550Z,45.00
2017-12-23T11:30:35.468Z,50.63
2017-12-23T11:31:35.390Z,50.63
2017-12-23T11:32:35.309Z,45.00
2017-12-23T11:33:35.226Z,45.00
2017-12-23T11:34:35.145Z,39.38
2017-12-23T11:35:35.064Z,39.38
2017-12-23T11:36:34.984Z,39.38
2017-12-23T11:37:34.904Z,39.38
2017-12-23T11:38:34.823Z,45.00
2017-12-23T11:39:34.741Z,45.00
2017-12-23T11:40:34.662Z,50.63
2017-12-23T11:41:34.580Z,56.25
2017-12-23T11:42:34.499Z,56.25
2017-12-23T11:43:34.418Z,61.88
2017-12-23T11:44:34.337Z,61.88
2017-12-23T11:45:34.258Z,67.50
2017-12-23T11:46:34.177Z,61.88
2017-12-23T11:47:34.094Z,61.88
2017-12-23T11:48:34.013Z,50.63
2017-12-23T11:49:33.932Z,45.00
2017-12-23T11:50:33.852Z,45.00
2017-12-23T11:51:33.771Z,39.38
2017-12-23T11:52:33.691Z,39.38
2017-12-23T11:53:33.610Z,45.00
2017-12-23T11:54:33.530Z,61.88
2017-12-23T11:55:33.447Z,67.50
2017-12-23T11:56:33.368Z,56.25
2017-12-23T11:57:33.286Z,67.50
2017-12-23T11:58:33.206Z,61.88
2017-12-23T11:59:33.125Z,61.88
2017-12-23T12:00:33.043Z,56.25
2017-12-23T12:01:32.965Z,56.25
2017-12-23T12:02:32.887Z,56.25
2017-12-23T12:03:32.801Z,61.88
2017-12-23T12:04:32.789Z,67.50
2017-12-23T12:05:32.640Z,67.50
2017-12-23T12:06:32.560Z,56.25
2017-12-23T12:07:32.481Z,56.25
2017-12-23T12:08:32.400Z,56.25
2017-12-23T12:09:32.318Z,50.63
2017-12-23T12:10:32.237Z,50.63
2017-12-23T12:11:32.158Z,56.25
2017-12-23T12:12:32.076Z,50.63
2017-12-23T12:13:31.995Z,39.38
2017-12-23T12:14:31.915Z,39.38
2017-12-23T12:15:31.835Z,33.75
2017-12-23T12:16:31.753Z,33.75
2017-12-23T12:17:31.677Z,28.13
2017-12-23T12:18:31.595Z,22.50
2017-12-23T12:19:31.513Z,22.50
2017-12-23T12:20:31.432Z,16.88
2017-12-23T12:21:31.352Z,16.88
2017-12-23T12:22:31.270Z,11.25
2017-12-23T12:23:31.190Z,11.25
2017-12-23T12:24:31.128Z,11.25
2017-12-23T12:25:31.030Z,11.25
2017-12-23T12:26:30.956Z,11.25
2017-12-23T12:27:30.877Z,16.88
2017-12-23T12:28:30.787Z,16.88
2017-12-23T12:29:30.706Z,16.88
2017-12-23T12:30:30.626Z,16.88
2017-12-23T12:31:30.544Z,16.88
2017-12-23T12:32:30.464Z,16.88
2017-12-23T12:33:30.384Z,16.88
2017-12-23T12:34:30.303Z,11.25
2017-12-23T12:35:30.220Z,16.88
2017-12-23T12:36:30.144Z,16.88
2017-12-23T12:37:30.060Z,16.88
2017-12-23T12:38:30.008Z,22.50
2017-12-23T12:39:29.911Z,28.13
2017-12-23T12:40:29.820Z,16.88
2017-12-23T12:41:29.736Z,16.88
2017-12-23T12:42:29.657Z,16.88
2017-12-23T12:43:29.575Z,16.88
2017-12-23T12:44:29.499Z,16.88
2017-12-23T12:45:29.416Z,16.88
2017-12-23T12:46:29.333Z,16.88
2017-12-23T12:47:29.260Z,16.88
2017-12-23T12:48:29.171Z,16.88
2017-12-23T12:49:29.090Z,16.88
2017-12-23T12:50:29.010Z,16.88
2017-12-23T12:51:28.929Z,16.88
2017-12-23T12:52:28.848Z,16.88
2017-12-23T12:53:28.765Z,16.88
2017-12-23T12:54:28.691Z,16.88
2017-12-23T12:55:28.604Z,16.88
2017-12-23T12:56:28.525Z,16.88
2017-12-23T12:57:28.465Z,16.88
2017-12-23T12:58:28.362Z,11.25
2017-12-23T12:59:28.282Z,11.25
2017-12-23T13:00:28.202Z,11.25
2017-12-23T13:01:28.122Z,11.25
2017-12-23T13:02:28.039Z,11.25
2017-12-23T13:03:27.963Z,11.25
2017-12-23T13:04:27.876Z,11.25
2017-12-23T13:05:27.795Z,11.25
2017-12-23T13:06:27.733Z,11.25